sensor_id;sensor_type;location;lat;lon;timestamp;pressure;altitude;pressure_sealevel;temperature;humidity
64844;BME280;51310;52.198;5.422;2023-12-20T00:01:49;101369.66;;;5.09;99.16
64844;BME280;51310;52.198;5.422;2023-12-20T00:04:15;101365.16;;;5.11;99.23
64844;BME280;51310;52.198;5.422;2023-12-20T00:06:41;101359.41;;;4.97;99.39
64844;BME280;51310;52.198;5.422;2023-12-20T00:09:07;101363.66;;;5.03;99.55
64844;BME280;51310;52.198;5.422;2023-12-20T00:11:33;101357.69;;;4.96;99.63
64844;BME280;51310;52.198;5.422;2023-12-20T00:13:59;101355.72;;;5.03;99.74
64844;BME280;51310;52.198;5.422;2023-12-20T00:16:24;101351.59;;;4.94;99.92
64844;BME280;51310;52.198;5.422;2023-12-20T00:18:50;101355.06;;;4.96;99.99
64844;BME280;51310;52.198;5.422;2023-12-20T00:21:16;101361.25;;;4.95;100.00
64844;BME280;51310;52.198;5.422;2023-12-20T00:23:42;101345.75;;;4.83;100.00
64844;BME280;51310;52.198;5.422;2023-12-20T00:26:08;101349.97;;;4.88;100.00
64844;BME280;51310;52.198;5.422;2023-12-20T00:28:34;101349.16;;;4.86;100.00
64844;BME280;51310;52.198;5.422;2023-12-20T00:31:00;101336.16;;;4.78;100.00
64844;BME280;51310;52.198;5.422;2023-12-20T00:33:25;101353.69;;;4.83;100.00
64844;BME280;51310;52.198;5.422;2023-12-20T00:35:51;101356.34;;;4.83;100.00
64844;BME280;51310;52.198;5.422;2023-12-20T00:38:17;101339.91;;;4.71;100.00
64844;BME280;51310;52.198;5.422;2023-12-20T00:40:43;101359.22;;;4.75;100.00
64844;BME280;51310;52.198;5.422;2023-12-20T00:43:09;101362.75;;;4.75;100.00
64844;BME280;51310;52.198;5.422;2023-12-20T00:45:35;101360.16;;;4.72;100.00
64844;BME280;51310;52.198;5.422;2023-12-20T00:48:01;101335.88;;;4.59;100.00
64844;BME280;51310;52.198;5.422;2023-12-20T00:50:26;101353.97;;;4.73;100.00
64844;BME280;51310;52.198;5.422;2023-12-20T00:52:52;101350.59;;;4.68;100.00
64844;BME280;51310;52.198;5.422;2023-12-20T00:55:20;101333.16;;;4.61;100.00
64844;BME280;51310;52.198;5.422;2023-12-20T00:57:46;101355.84;;;4.70;100.00
64844;BME280;51310;52.198;5.422;2023-12-20T01:00:12;101334.16;;;4.57;100.00
64844;BME280;51310;52.198;5.422;2023-12-20T01:02:39;101347.22;;;4.63;100.00
64844;BME280;51310;52.198;5.422;2023-12-20T01:05:06;101335.94;;;4.56;100.00
64844;BME280;51310;52.198;5.422;2023-12-20T01:07:33;101326.41;;;4.51;100.00
64844;BME280;51310;52.198;5.422;2023-12-20T01:09:59;101338.44;;;4.61;100.00
64844;BME280;51310;52.198;5.422;2023-12-20T01:12:25;101333.22;;;4.59;100.00
64844;BME280;51310;52.198;5.422;2023-12-20T01:14:51;101328.00;;;4.56;100.00
64844;BME280;51310;52.198;5.422;2023-12-20T01:17:16;101341.88;;;4.65;100.00
64844;BME280;51310;52.198;5.422;2023-12-20T01:19:42;101343.66;;;4.64;100.00
64844;BME280;51310;52.198;5.422;2023-12-20T01:22:08;101353.97;;;4.73;100.00
64844;BME280;51310;52.198;5.422;2023-12-20T01:24:34;101355.63;;;4.77;100.00
64844;BME280;51310;52.198;5.422;2023-12-20T01:27:00;101350.38;;;4.76;100.00
64844;BME280;51310;52.198;5.422;2023-12-20T01:29:26;101342.28;;;4.80;100.00
64844;BME280;51310;52.198;5.422;2023-12-20T01:31:52;101349.81;;;4.93;100.00
64844;BME280;51310;52.198;5.422;2023-12-20T01:34:18;101344.44;;;4.96;100.00
64844;BME280;51310;52.198;5.422;2023-12-20T01:36:44;101351.19;;;5.06;100.00
64844;BME280;51310;52.198;5.422;2023-12-20T01:39:10;101362.38;;;5.16;100.00
64844;BME280;51310;52.198;5.422;2023-12-20T01:41:35;101340.50;;;5.09;100.00
64844;BME280;51310;52.198;5.422;2023-12-20T01:44:01;101348.97;;;5.20;99.96
64844;BME280;51310;52.198;5.422;2023-12-20T01:46:27;101326.50;;;5.04;99.75
64844;BME280;51310;52.198;5.422;2023-12-20T01:48:53;101333.56;;;5.05;99.44
64844;BME280;51310;52.198;5.422;2023-12-20T01:51:20;101328.56;;;4.96;99.55
64844;BME280;51310;52.198;5.422;2023-12-20T01:53:47;101348.50;;;5.08;99.32
64844;BME280;51310;52.198;5.422;2023-12-20T01:56:14;101336.06;;;5.10;99.43
64844;BME280;51310;52.198;5.422;2023-12-20T01:58:44;101346.41;;;5.17;99.50
64844;BME280;51310;52.198;5.422;2023-12-20T02:01:12;101334.91;;;5.18;99.34
64844;BME280;51310;52.198;5.422;2023-12-20T02:03:42;101345.66;;;5.14;99.18
64844;BME280;51310;52.198;5.422;2023-12-20T02:06:09;101335.38;;;5.03;99.39
64844;BME280;51310;52.198;5.422;2023-12-20T02:08:36;101325.81;;;4.99;99.20
64844;BME280;51310;52.198;5.422;2023-12-20T02:11:02;101316.13;;;4.98;99.25
64844;BME280;51310;52.198;5.422;2023-12-20T02:13:28;101326.31;;;5.10;99.37
64844;BME280;51310;52.198;5.422;2023-12-20T02:15:55;101331.31;;;5.19;99.56
64844;BME280;51310;52.198;5.422;2023-12-20T02:18:21;101334.72;;;5.25;99.33
64844;BME280;51310;52.198;5.422;2023-12-20T02:20:47;101325.63;;;5.32;99.42
64844;BME280;51310;52.198;5.422;2023-12-20T02:23:13;101327.47;;;5.30;99.21
64844;BME280;51310;52.198;5.422;2023-12-20T02:25:39;101322.41;;;5.22;98.95
64844;BME280;51310;52.198;5.422;2023-12-20T02:28:05;101322.78;;;5.11;99.03
64844;BME280;51310;52.198;5.422;2023-12-20T02:30:32;101334.78;;;5.21;98.99
64844;BME280;51310;52.198;5.422;2023-12-20T02:33:00;101326.13;;;5.16;98.95
64844;BME280;51310;52.198;5.422;2023-12-20T02:35:26;101327.94;;;5.16;98.78
64844;BME280;51310;52.198;5.422;2023-12-20T02:37:52;101323.53;;;5.15;98.80
64844;BME280;51310;52.198;5.422;2023-12-20T02:40:18;101325.28;;;5.16;98.99
64844;BME280;51310;52.198;5.422;2023-12-20T02:42:44;101310.53;;;5.07;99.04
64844;BME280;51310;52.198;5.422;2023-12-20T02:45:10;101309.56;;;5.10;99.20
64844;BME280;51310;52.198;5.422;2023-12-20T02:47:36;101296.56;;;5.02;99.10
64844;BME280;51310;52.198;5.422;2023-12-20T02:50:02;101294.69;;;5.06;99.03
64844;BME280;51310;52.198;5.422;2023-12-20T02:52:29;101309.94;;;5.26;99.11
64844;BME280;51310;52.198;5.422;2023-12-20T02:54:55;101278.63;;;5.10;99.21
64844;BME280;51310;52.198;5.422;2023-12-20T02:57:21;101314.69;;;5.16;99.06
64844;BME280;51310;52.198;5.422;2023-12-20T02:59:47;101302.47;;;5.10;99.17
64844;BME280;51310;52.198;5.422;2023-12-20T03:02:13;101302.53;;;5.09;99.28
64844;BME280;51310;52.198;5.422;2023-12-20T03:04:38;101278.28;;;4.94;99.40
64844;BME280;51310;52.198;5.422;2023-12-20T03:07:04;101279.59;;;5.08;99.38
64844;BME280;51310;52.198;5.422;2023-12-20T03:09:30;101284.03;;;5.07;99.47
64844;BME280;51310;52.198;5.422;2023-12-20T03:11:56;101280.28;;;5.14;99.32
64844;BME280;51310;52.198;5.422;2023-12-20T03:14:22;101301.47;;;5.41;99.29
64844;BME280;51310;52.198;5.422;2023-12-20T03:16:51;101299.56;;;5.45;98.97
64844;BME280;51310;52.198;5.422;2023-12-20T03:19:18;101288.88;;;5.48;98.68
64844;BME280;51310;52.198;5.422;2023-12-20T03:21:45;101291.25;;;5.55;98.27
64844;BME280;51310;52.198;5.422;2023-12-20T03:24:11;101282.59;;;5.50;97.95
64844;BME280;51310;52.198;5.422;2023-12-20T03:26:37;101261.72;;;5.41;97.48
64844;BME280;51310;52.198;5.422;2023-12-20T03:29:02;101260.59;;;5.47;97.13
64844;BME280;51310;52.198;5.422;2023-12-20T03:31:28;101273.63;;;5.54;96.93
64844;BME280;51310;52.198;5.422;2023-12-20T03:33:54;101285.53;;;5.68;96.76
64844;BME280;51310;52.198;5.422;2023-12-20T03:36:20;101279.16;;;5.72;96.19
64844;BME280;51310;52.198;5.422;2023-12-20T03:38:46;101273.06;;;5.70;95.91
64844;BME280;51310;52.198;5.422;2023-12-20T03:41:13;101283.44;;;5.76;95.86
64844;BME280;51310;52.198;5.422;2023-12-20T03:43:39;101286.91;;;5.78;95.35
64844;BME280;51310;52.198;5.422;2023-12-20T03:46:05;101280.78;;;5.76;95.24
64844;BME280;51310;52.198;5.422;2023-12-20T03:48:33;101284.63;;;5.67;95.06
64844;BME280;51310;52.198;5.422;2023-12-20T03:50:58;101289.06;;;5.67;94.95
64844;BME280;51310;52.198;5.422;2023-12-20T03:53:24;101283.44;;;5.76;94.68
64844;BME280;51310;52.198;5.422;2023-12-20T03:55:50;101274.34;;;5.83;94.39
64844;BME280;51310;52.198;5.422;2023-12-20T03:58:16;101279.34;;;5.92;93.62
64844;BME280;51310;52.198;5.422;2023-12-20T04:00:42;101279.06;;;6.00;93.39
64844;BME280;51310;52.198;5.422;2023-12-20T04:03:08;101284.22;;;6.04;92.59
64844;BME280;51310;52.198;5.422;2023-12-20T04:05:34;101287.47;;;6.13;92.30
64844;BME280;51310;52.198;5.422;2023-12-20T04:08:02;101282.72;;;6.21;91.85
64844;BME280;51310;52.198;5.422;2023-12-20T04:10:28;101275.63;;;6.21;91.14
64844;BME280;51310;52.198;5.422;2023-12-20T04:12:54;101262.28;;;6.23;90.90
64844;BME280;51310;52.198;5.422;2023-12-20T04:15:20;101268.56;;;6.20;90.89
64844;BME280;51310;52.198;5.422;2023-12-20T04:17:46;101264.25;;;6.18;90.90
64844;BME280;51310;52.198;5.422;2023-12-20T04:20:12;101252.38;;;6.04;90.97
64844;BME280;51310;52.198;5.422;2023-12-20T04:22:38;101277.31;;;6.24;90.84
64844;BME280;51310;52.198;5.422;2023-12-20T04:25:04;101273.03;;;6.20;90.86
64844;BME280;51310;52.198;5.422;2023-12-20T04:27:30;101277.13;;;6.29;90.55
64844;BME280;51310;52.198;5.422;2023-12-20T04:29:56;101278.75;;;6.33;90.39
64844;BME280;51310;52.198;5.422;2023-12-20T04:32:22;101260.22;;;6.31;89.75
64844;BME280;51310;52.198;5.422;2023-12-20T04:34:48;101286.28;;;6.43;89.68
64844;BME280;51310;52.198;5.422;2023-12-20T04:37:14;101284.50;;;6.44;89.70
64844;BME280;51310;52.198;5.422;2023-12-20T04:39:40;101266.19;;;6.36;89.62
64844;BME280;51310;52.198;5.422;2023-12-20T04:42:07;101258.22;;;6.36;89.65
64844;BME280;51310;52.198;5.422;2023-12-20T04:44:33;101273.81;;;6.45;89.67
64844;BME280;51310;52.198;5.422;2023-12-20T04:46:58;101265.91;;;6.44;89.71
64844;BME280;51310;52.198;5.422;2023-12-20T04:49:25;101270.25;;;6.46;89.69
64844;BME280;51310;52.198;5.422;2023-12-20T04:51:51;101268.50;;;6.45;89.84
64844;BME280;51310;52.198;5.422;2023-12-20T04:54:17;101259.00;;;6.40;89.73
64844;BME280;51310;52.198;5.422;2023-12-20T04:56:42;101261.97;;;6.54;89.77
64844;BME280;51310;52.198;5.422;2023-12-20T04:59:08;101248.88;;;6.50;89.18
64844;BME280;51310;52.198;5.422;2023-12-20T05:01:34;101257.50;;;6.55;89.24
64844;BME280;51310;52.198;5.422;2023-12-20T05:04:00;101259.81;;;6.64;89.03
64844;BME280;51310;52.198;5.422;2023-12-20T05:06:26;101263.34;;;6.64;89.13
64844;BME280;51310;52.198;5.422;2023-12-20T05:08:52;101253.69;;;6.62;88.97
64844;BME280;51310;52.198;5.422;2023-12-20T05:11:18;101253.69;;;6.62;88.47
64844;BME280;51310;52.198;5.422;2023-12-20T05:13:43;101251.97;;;6.61;88.06
64844;BME280;51310;52.198;5.422;2023-12-20T05:16:09;101265.81;;;6.69;88.42
64844;BME280;51310;52.198;5.422;2023-12-20T05:18:35;101263.97;;;6.71;88.36
64844;BME280;51310;52.198;5.422;2023-12-20T05:21:02;101254.47;;;6.64;88.38
64844;BME280;51310;52.198;5.422;2023-12-20T05:23:28;101253.81;;;6.59;88.57
64844;BME280;51310;52.198;5.422;2023-12-20T05:25:54;101270.31;;;6.67;88.66
64844;BME280;51310;52.198;5.422;2023-12-20T05:28:19;101276.31;;;6.72;88.56
64844;BME280;51310;52.198;5.422;2023-12-20T05:30:46;101273.78;;;6.69;88.53
64844;BME280;51310;52.198;5.422;2023-12-20T05:33:12;101257.41;;;6.58;88.71
64844;BME280;51310;52.198;5.422;2023-12-20T05:35:37;101256.34;;;6.62;88.54
64844;BME280;51310;52.198;5.422;2023-12-20T05:38:03;101265.69;;;6.72;88.13
64844;BME280;51310;52.198;5.422;2023-12-20T05:40:29;101254.47;;;6.64;88.18
64844;BME280;51310;52.198;5.422;2023-12-20T05:42:55;101257.94;;;6.66;88.02
64844;BME280;51310;52.198;5.422;2023-12-20T05:45:21;101266.63;;;6.71;88.15
64844;BME280;51310;52.198;5.422;2023-12-20T05:47:47;101259.75;;;6.65;88.18
64844;BME280;51310;52.198;5.422;2023-12-20T05:50:12;101267.53;;;6.70;88.07
64844;BME280;51310;52.198;5.422;2023-12-20T05:52:38;101248.31;;;6.63;88.16
64844;BME280;51310;52.198;5.422;2023-12-20T05:55:04;101256.19;;;6.66;87.54
64844;BME280;51310;52.198;5.422;2023-12-20T05:57:30;101268.09;;;6.78;87.62
64844;BME280;51310;52.198;5.422;2023-12-20T05:59:56;101271.56;;;6.80;87.33
64844;BME280;51310;52.198;5.422;2023-12-20T06:02:22;101260.13;;;6.78;87.32
64844;BME280;51310;52.198;5.422;2023-12-20T06:04:48;101257.38;;;6.80;87.28
64844;BME280;51310;52.198;5.422;2023-12-20T06:07:16;101265.44;;;6.78;87.56
64844;BME280;51310;52.198;5.422;2023-12-20T06:09:42;101247.09;;;6.72;87.28
64844;BME280;51310;52.198;5.422;2023-12-20T06:12:08;101259.09;;;6.82;87.42
64844;BME280;51310;52.198;5.422;2023-12-20T06:14:35;101235.53;;;6.73;87.27
64844;BME280;51310;52.198;5.422;2023-12-20T06:17:01;101245.91;;;6.79;87.44
64844;BME280;51310;52.198;5.422;2023-12-20T06:19:27;101252.78;;;6.85;87.53
64844;BME280;51310;52.198;5.422;2023-12-20T06:21:53;101232.09;;;6.71;87.63
64844;BME280;51310;52.198;5.422;2023-12-20T06:24:19;101237.25;;;6.74;87.93
64844;BME280;51310;52.198;5.422;2023-12-20T06:26:45;101244.91;;;6.82;87.86
64844;BME280;51310;52.198;5.422;2023-12-20T06:29:12;101244.06;;;6.81;87.90
64844;BME280;51310;52.198;5.422;2023-12-20T06:31:38;101249.38;;;6.81;87.99
64844;BME280;51310;52.198;5.422;2023-12-20T06:34:04;101244.19;;;6.78;88.15
64844;BME280;51310;52.198;5.422;2023-12-20T06:36:30;101250.97;;;6.85;87.98
64844;BME280;51310;52.198;5.422;2023-12-20T06:38:56;101243.91;;;6.84;87.64
64844;BME280;51310;52.198;5.422;2023-12-20T06:41:22;101241.97;;;6.90;87.41
64844;BME280;51310;52.198;5.422;2023-12-20T06:43:50;101243.66;;;6.91;87.43
64844;BME280;51310;52.198;5.422;2023-12-20T06:46:17;101231.19;;;6.93;86.88
64844;BME280;51310;52.198;5.422;2023-12-20T06:48:42;101248.50;;;7.03;86.68
64844;BME280;51310;52.198;5.422;2023-12-20T06:51:15;101229.94;;;7.01;87.05
64844;BME280;51310;52.198;5.422;2023-12-20T06:53:42;101235.06;;;7.06;86.67
64844;BME280;51310;52.198;5.422;2023-12-20T06:56:10;101215.09;;;6.96;86.62
64844;BME280;51310;52.198;5.422;2023-12-20T06:58:37;101216.81;;;6.98;86.64
64844;BME280;51310;52.198;5.422;2023-12-20T07:01:03;101222.91;;;7.00;86.89
64844;BME280;51310;52.198;5.422;2023-12-20T07:03:30;101230.81;;;7.02;86.69
64844;BME280;51310;52.198;5.422;2023-12-20T07:05:55;101234.16;;;7.07;86.72
64844;BME280;51310;52.198;5.422;2023-12-20T07:08:21;101229.63;;;7.09;86.66
64844;BME280;51310;52.198;5.422;2023-12-20T07:10:47;101220.97;;;7.04;86.56
64844;BME280;51310;52.198;5.422;2023-12-20T07:13:13;101218.06;;;7.10;85.89
64844;BME280;51310;52.198;5.422;2023-12-20T07:15:39;101229.38;;;7.15;86.08
64844;BME280;51310;52.198;5.422;2023-12-20T07:18:05;101225.66;;;7.19;85.83
64844;BME280;51310;52.198;5.422;2023-12-20T07:20:32;101228.31;;;7.19;85.96
64844;BME280;51310;52.198;5.422;2023-12-20T07:22:59;101212.63;;;7.13;85.85
64844;BME280;51310;52.198;5.422;2023-12-20T07:25:25;101213.16;;;7.21;85.55
64844;BME280;51310;52.198;5.422;2023-12-20T07:27:51;101227.06;;;7.28;85.11
64844;BME280;51310;52.198;5.422;2023-12-20T07:30:17;101213.00;;;7.24;85.44
64844;BME280;51310;52.198;5.422;2023-12-20T07:32:43;101195.81;;;7.13;85.79
64844;BME280;51310;52.198;5.422;2023-12-20T07:35:09;101206.03;;;7.22;85.78
64844;BME280;51310;52.198;5.422;2023-12-20T07:37:34;101196.25;;;7.22;85.67
64844;BME280;51310;52.198;5.422;2023-12-20T07:40:00;101186.19;;;7.10;85.86
64844;BME280;51310;52.198;5.422;2023-12-20T07:42:26;101178.34;;;7.07;86.05
64844;BME280;51310;52.198;5.422;2023-12-20T07:44:52;101207.28;;;7.13;86.13
64844;BME280;51310;52.198;5.422;2023-12-20T07:47:18;101220.19;;;7.22;86.07
64844;BME280;51310;52.198;5.422;2023-12-20T07:49:50;101198.53;;;7.11;85.96
64844;BME280;51310;52.198;5.422;2023-12-20T07:52:18;101223.00;;;7.19;86.28
64844;BME280;51310;52.198;5.422;2023-12-20T07:54:45;101218.94;;;7.11;86.44
64844;BME280;51310;52.198;5.422;2023-12-20T07:57:12;101233.28;;;7.27;86.09
64844;BME280;51310;52.198;5.422;2023-12-20T07:59:38;101236.03;;;7.25;86.27
64844;BME280;51310;52.198;5.422;2023-12-20T08:02:03;101243.84;;;7.28;86.28
64844;BME280;51310;52.198;5.422;2023-12-20T08:04:30;101215.81;;;7.21;86.12
64844;BME280;51310;52.198;5.422;2023-12-20T08:06:56;101253.19;;;7.39;85.87
64844;BME280;51310;52.198;5.422;2023-12-20T08:09:21;101226.31;;;7.24;85.76
64844;BME280;51310;52.198;5.422;2023-12-20T08:11:48;101251.38;;;7.39;85.69
64844;BME280;51310;52.198;5.422;2023-12-20T08:14:15;101252.25;;;7.40;85.89
64844;BME280;51310;52.198;5.422;2023-12-20T08:16:41;101253.19;;;7.39;85.82
64844;BME280;51310;52.198;5.422;2023-12-20T08:19:07;101264.63;;;7.41;85.78
64844;BME280;51310;52.198;5.422;2023-12-20T08:21:33;101238.28;;;7.35;85.84
64844;BME280;51310;52.198;5.422;2023-12-20T08:23:59;101247.06;;;7.37;86.13
64844;BME280;51310;52.198;5.422;2023-12-20T08:26:26;101246.78;;;7.43;85.83
64844;BME280;51310;52.198;5.422;2023-12-20T08:28:52;101244.22;;;7.41;86.12
64844;BME280;51310;52.198;5.422;2023-12-20T08:31:19;101225.00;;;7.35;85.83
64844;BME280;51310;52.198;5.422;2023-12-20T08:33:46;101219.78;;;7.32;86.02
64844;BME280;51310;52.198;5.422;2023-12-20T08:36:13;101230.56;;;7.28;86.44
64844;BME280;51310;52.198;5.422;2023-12-20T08:38:40;101231.81;;;7.40;86.14
64844;BME280;51310;52.198;5.422;2023-12-20T08:41:06;101210.34;;;7.24;86.29
64844;BME280;51310;52.198;5.422;2023-12-20T08:43:34;101230.06;;;7.41;86.25
64844;BME280;51310;52.198;5.422;2023-12-20T08:46:00;101221.38;;;7.36;86.45
64844;BME280;51310;52.198;5.422;2023-12-20T08:48:28;101232.81;;;7.38;86.72
64844;BME280;51310;52.198;5.422;2023-12-20T08:50:54;101211.81;;;7.32;86.47
64844;BME280;51310;52.198;5.422;2023-12-20T08:53:20;101229.16;;;7.40;86.83
64844;BME280;51310;52.198;5.422;2023-12-20T08:55:47;101239.88;;;7.39;87.01
64844;BME280;51310;52.198;5.422;2023-12-20T08:58:13;101236.44;;;7.37;87.32
64844;BME280;51310;52.198;5.422;2023-12-20T09:00:40;101233.38;;;7.25;87.99
64844;BME280;51310;52.198;5.422;2023-12-20T09:03:06;101232.28;;;7.09;88.87
64844;BME280;51310;52.198;5.422;2023-12-20T09:05:31;101232.03;;;7.15;89.29
64844;BME280;51310;52.198;5.422;2023-12-20T09:07:58;101241.75;;;7.16;89.63
64844;BME280;51310;52.198;5.422;2023-12-20T09:10:24;101241.47;;;7.22;89.78
64844;BME280;51310;52.198;5.422;2023-12-20T09:12:53;101238.19;;;7.16;89.85
64844;BME280;51310;52.198;5.422;2023-12-20T09:15:25;101231.09;;;7.16;90.28
64844;BME280;51310;52.198;5.422;2023-12-20T09:17:53;101241.66;;;7.18;90.21
64844;BME280;51310;52.198;5.422;2023-12-20T09:20:19;101235.22;;;7.23;90.40
64844;BME280;51310;52.198;5.422;2023-12-20T09:22:45;101245.00;;;7.23;90.51
64844;BME280;51310;52.198;5.422;2023-12-20T09:25:12;101207.59;;;7.07;90.53
64844;BME280;51310;52.198;5.422;2023-12-20T09:27:39;101216.72;;;7.20;90.42
64844;BME280;51310;52.198;5.422;2023-12-20T09:30:06;101212.81;;;7.29;90.14
64844;BME280;51310;52.198;5.422;2023-12-20T09:32:32;101218.81;;;7.34;89.65
64844;BME280;51310;52.198;5.422;2023-12-20T09:34:58;101232.22;;;7.31;89.82
64844;BME280;51310;52.198;5.422;2023-12-20T09:37:27;101211.34;;;7.22;89.91
64844;BME280;51310;52.198;5.422;2023-12-20T09:39:54;101220.59;;;7.34;89.85
64844;BME280;51310;52.198;5.422;2023-12-20T09:45:15;101215.16;;;7.37;88.88
64844;BME280;51310;52.198;5.422;2023-12-20T09:47:43;101210.44;;;7.43;88.22
64844;BME280;51310;52.198;5.422;2023-12-20T09:50:11;101222.53;;;7.50;87.87
64844;BME280;51310;52.198;5.422;2023-12-20T09:52:40;101228.19;;;7.63;87.08
64844;BME280;51310;52.198;5.422;2023-12-20T09:55:08;101225.09;;;7.72;85.89
64844;BME280;51310;52.198;5.422;2023-12-20T09:57:35;101214.06;;;7.61;86.12
64844;BME280;51310;52.198;5.422;2023-12-20T10:00:01;101228.41;;;7.78;85.71
64844;BME280;51310;52.198;5.422;2023-12-20T10:02:27;101221.75;;;7.67;85.94
64844;BME280;51310;52.198;5.422;2023-12-20T10:04:55;101232.13;;;7.74;85.84
64844;BME280;51310;52.198;5.422;2023-12-20T10:07:21;101235.22;;;7.83;85.41
64844;BME280;51310;52.198;5.422;2023-12-20T10:09:48;101235.91;;;7.88;85.17
64844;BME280;51310;52.198;5.422;2023-12-20T10:12:14;101245.28;;;7.97;85.04
64844;BME280;51310;52.198;5.422;2023-12-20T10:14:40;101251.91;;;8.07;84.35
64844;BME280;51310;52.198;5.422;2023-12-20T10:17:06;101240.44;;;8.05;83.71
64844;BME280;51310;52.198;5.422;2023-12-20T10:19:32;101230.53;;;8.09;83.46
64844;BME280;51310;52.198;5.422;2023-12-20T10:21:59;101251.25;;;8.21;83.38
64844;BME280;51310;52.198;5.422;2023-12-20T10:24:28;101249.38;;;8.23;83.37
64844;BME280;51310;52.198;5.422;2023-12-20T10:27:08;101235.06;;;8.26;82.67
64844;BME280;51310;52.198;5.422;2023-12-20T10:29:37;101217.72;;;8.17;82.55
64844;BME280;51310;52.198;5.422;2023-12-20T10:32:26;101216.94;;;8.15;83.00
64844;BME280;51310;52.198;5.422;2023-12-20T10:34:56;101232.19;;;8.11;83.24
64844;BME280;51310;52.198;5.422;2023-12-20T10:37:22;101237.59;;;8.29;83.07
64844;BME280;51310;52.198;5.422;2023-12-20T10:39:54;101221.53;;;8.30;82.94
64844;BME280;51310;52.198;5.422;2023-12-20T10:42:26;101221.06;;;8.41;82.47
64844;BME280;51310;52.198;5.422;2023-12-20T10:44:52;101212.25;;;8.39;82.44
64844;BME280;51310;52.198;5.422;2023-12-20T10:47:21;101224.91;;;8.53;81.87
64844;BME280;51310;52.198;5.422;2023-12-20T10:49:50;101228.25;;;8.58;81.65
64844;BME280;51310;52.198;5.422;2023-12-20T10:52:18;101216.63;;;8.59;81.46
64844;BME280;51310;52.198;5.422;2023-12-20T10:54:45;101194.81;;;8.51;80.85
64844;BME280;51310;52.198;5.422;2023-12-20T10:57:12;101220.94;;;8.62;80.29
64844;BME280;51310;52.198;5.422;2023-12-20T10:59:38;101225.50;;;8.60;80.61
64844;BME280;51310;52.198;5.422;2023-12-20T11:02:05;101200.38;;;8.46;80.82
64844;BME280;51310;52.198;5.422;2023-12-20T11:04:49;101223.03;;;8.55;81.44
64844;BME280;51310;52.198;5.422;2023-12-20T11:07:49;101206.50;;;8.48;81.29
64844;BME280;51310;52.198;5.422;2023-12-20T11:10:26;101207.34;;;8.68;81.07
64844;BME280;51310;52.198;5.422;2023-12-20T11:13:17;101194.66;;;8.73;80.82
64844;BME280;51310;52.198;5.422;2023-12-20T11:16:00;101210.38;;;8.96;80.57
64844;BME280;51310;52.198;5.422;2023-12-20T11:18:32;101178.69;;;8.90;80.66
64844;BME280;51310;52.198;5.422;2023-12-20T11:21:04;101193.41;;;8.98;80.23
64844;BME280;51310;52.198;5.422;2023-12-20T11:23:32;101192.88;;;8.91;80.02
64844;BME280;51310;52.198;5.422;2023-12-20T11:26:02;101187.63;;;8.89;79.81
64844;BME280;51310;52.198;5.422;2023-12-20T11:28:29;101171.69;;;8.88;79.58
64844;BME280;51310;52.198;5.422;2023-12-20T11:30:58;101184.72;;;9.11;79.26
64844;BME280;51310;52.198;5.422;2023-12-20T11:33:35;101178.41;;;9.30;78.85
64844;BME280;51310;52.198;5.422;2023-12-20T11:36:02;101171.91;;;9.18;77.72
64844;BME280;51310;52.198;5.422;2023-12-20T11:38:37;101175.06;;;9.26;77.93
64844;BME280;51310;52.198;5.422;2023-12-20T11:41:06;101183.31;;;9.22;78.18
64844;BME280;51310;52.198;5.422;2023-12-20T11:43:36;101187.63;;;9.24;77.99
64844;BME280;51310;52.198;5.422;2023-12-20T11:46:09;101178.03;;;9.20;77.79
64844;BME280;51310;52.198;5.422;2023-12-20T11:48:38;101167.53;;;9.17;77.93
64844;BME280;51310;52.198;5.422;2023-12-20T11:51:12;101168.47;;;9.16;77.54
64844;BME280;51310;52.198;5.422;2023-12-20T11:53:42;101165.13;;;9.12;77.76
64844;BME280;51310;52.198;5.422;2023-12-20T11:56:08;101161.28;;;9.01;77.84
64844;BME280;51310;52.198;5.422;2023-12-20T11:58:36;101155.78;;;9.04;77.70
64844;BME280;51310;52.198;5.422;2023-12-20T12:01:02;101162.75;;;9.06;78.16
64844;BME280;51310;52.198;5.422;2023-12-20T12:03:30;101140.56;;;8.88;77.63
64844;BME280;51310;52.198;5.422;2023-12-20T12:05:56;101164.03;;;8.99;77.88
64844;BME280;51310;52.198;5.422;2023-12-20T12:08:22;101144.19;;;8.87;78.56
64844;BME280;51310;52.198;5.422;2023-12-20T12:10:49;101160.81;;;8.92;78.16
64844;BME280;51310;52.198;5.422;2023-12-20T12:13:15;101172.41;;;8.91;78.46
64844;BME280;51310;52.198;5.422;2023-12-20T12:15:42;101149.03;;;8.79;79.04
64844;BME280;51310;52.198;5.422;2023-12-20T12:18:08;101175.22;;;8.88;79.25
64844;BME280;51310;52.198;5.422;2023-12-20T12:20:35;101165.66;;;8.84;79.68
64844;BME280;51310;52.198;5.422;2023-12-20T12:23:04;101125.59;;;8.86;79.42
64844;BME280;51310;52.198;5.422;2023-12-20T12:25:34;101159.38;;;9.03;79.70
64844;BME280;51310;52.198;5.422;2023-12-20T12:28:05;101161.81;;;9.07;79.21
64844;BME280;51310;52.198;5.422;2023-12-20T12:30:31;101142.38;;;9.05;79.16
64844;BME280;51310;52.198;5.422;2023-12-20T12:32:57;101133.75;;;9.00;78.92
64844;BME280;51310;52.198;5.422;2023-12-20T12:35:26;101123.66;;;8.89;79.14
64844;BME280;51310;52.198;5.422;2023-12-20T12:37:52;101122.00;;;8.87;79.29
64844;BME280;51310;52.198;5.422;2023-12-20T12:40:18;101126.63;;;8.83;79.46
64844;BME280;51310;52.198;5.422;2023-12-20T12:42:45;101130.69;;;8.90;79.30
64844;BME280;51310;52.198;5.422;2023-12-20T12:45:11;101095.56;;;8.82;79.43
64844;BME280;51310;52.198;5.422;2023-12-20T12:47:37;101097.44;;;8.80;79.58
64844;BME280;51310;52.198;5.422;2023-12-20T12:50:04;101125.44;;;8.89;79.64
64844;BME280;51310;52.198;5.422;2023-12-20T12:52:31;101124.59;;;8.88;79.67
64844;BME280;51310;52.198;5.422;2023-12-20T12:54:57;101112.34;;;8.84;80.04
64844;BME280;51310;52.198;5.422;2023-12-20T12:57:23;101123.97;;;8.83;80.44
64844;BME280;51310;52.198;5.422;2023-12-20T12:59:50;101104.34;;;8.84;80.27
64844;BME280;51310;52.198;5.422;2023-12-20T13:02:16;101115.19;;;8.81;80.55